createdAt,value
2018-08-23T00:01:39.060Z,20.61
2018-08-23T00:04:10.272Z,20.57
2018-08-23T00:06:54.010Z,20.63
2018-08-23T00:09:24.616Z,20.56
2018-08-23T00:11:57.207Z,20.38
2018-08-23T00:14:30.207Z,20.28
2018-08-23T00:17:00.365Z,20.36
2018-08-23T00:19:31.170Z,20.26
2018-08-23T00:22:02.781Z,20.31
2018-08-23T00:24:33.591Z,20.19
2018-08-23T00:27:06.783Z,20.16
2018-08-23T00:29:36.760Z,20.07
2018-08-23T00:32:08.263Z,19.93
2018-08-23T00:34:40.960Z,20.09
2018-08-23T00:37:14.048Z,20.17
2018-08-23T00:39:44.095Z,20.22
2018-08-23T00:42:15.887Z,20.24
2018-08-23T00:45:03.738Z,20.35
2018-08-23T00:47:34.984Z,19.88
2018-08-23T00:50:07.623Z,19.97
2018-08-23T00:52:46.346Z,20.08
2018-08-23T00:55:28.057Z,20.20
2018-08-23T00:57:59.100Z,20.09
2018-08-23T01:00:32.698Z,20.13
2018-08-23T01:03:04.567Z,20.08
2018-08-23T01:05:40.377Z,20.08
2018-08-23T01:08:12.849Z,20.11
2018-08-23T01:10:46.975Z,19.96
2018-08-23T01:13:17.446Z,19.91
2018-08-23T01:15:50.392Z,19.85
2018-08-23T01:18:21.452Z,19.91
2018-08-23T01:20:53.071Z,19.90
2018-08-23T01:23:25.985Z,19.87
2018-08-23T01:25:56.096Z,19.75
2018-08-23T01:28:28.140Z,19.71
2018-08-23T01:31:10.988Z,19.77
2018-08-23T01:33:41.273Z,19.81
2018-08-23T01:36:11.539Z,19.81
2018-08-23T01:38:41.865Z,19.81
2018-08-23T01:41:13.539Z,19.75
2018-08-23T01:43:46.107Z,19.71
2018-08-23T01:46:16.225Z,19.66
2018-08-23T01:48:53.764Z,19.61
2018-08-23T01:51:30.191Z,19.68
2018-08-23T01:54:00.448Z,19.60
2018-08-23T01:56:35.193Z,19.59
2018-08-23T01:59:05.683Z,19.58
2018-08-23T02:01:36.911Z,19.60
2018-08-23T02:04:09.864Z,19.62
2018-08-23T02:06:40.436Z,19.62
2018-08-23T02:09:12.961Z,19.56
2018-08-23T02:11:43.166Z,19.59
2018-08-23T02:14:13.309Z,19.54
2018-08-23T02:16:53.547Z,19.40
2018-08-23T02:19:25.775Z,19.40
2018-08-23T02:21:57.817Z,19.43
2018-08-23T02:24:32.548Z,19.40
2018-08-23T02:27:02.552Z,19.39
2018-08-23T02:29:41.976Z,19.50
2018-08-23T02:32:13.494Z,19.49
2018-08-23T02:34:48.216Z,19.32
2018-08-23T02:37:20.629Z,19.19
2018-08-23T02:39:50.672Z,19.13
2018-08-23T02:42:22.760Z,19.05
2018-08-23T02:45:03.066Z,19.10
2018-08-23T02:47:33.699Z,18.99
2018-08-23T02:50:06.934Z,19.00
2018-08-23T02:52:37.734Z,19.14
2018-08-23T02:55:09.953Z,19.08
2018-08-23T02:57:49.288Z,19.13
2018-08-23T03:00:23.564Z,19.13
2018-08-23T03:02:55.110Z,19.18
2018-08-23T03:05:24.956Z,19.10
2018-08-23T03:07:55.754Z,19.03
2018-08-23T03:10:25.888Z,19.01
2018-08-23T03:12:55.978Z,18.95
2018-08-23T03:15:26.098Z,18.93
2018-08-23T03:17:58.438Z,18.95
2018-08-23T03:20:28.739Z,18.84
2018-08-23T03:23:01.241Z,18.75
2018-08-23T03:25:32.103Z,18.60
2018-08-23T03:28:05.413Z,18.48
2018-08-23T03:30:36.708Z,18.55
2018-08-23T03:33:06.985Z,18.49
2018-08-23T03:35:37.106Z,18.67
2018-08-23T03:38:09.707Z,18.71
2018-08-23T03:40:40.828Z,18.67
2018-08-23T03:43:11.337Z,18.72
2018-08-23T03:45:42.209Z,18.86
2018-08-23T03:48:13.571Z,18.92
2018-08-23T03:50:49.622Z,18.92
2018-08-23T03:53:33.486Z,18.83
2018-08-23T03:56:23.972Z,18.70
2018-08-23T03:59:15.853Z,18.69
2018-08-23T04:15:39.705Z,19.20
2018-08-23T04:18:17.122Z,19.16
2018-08-23T04:20:56.968Z,19.13
2018-08-23T04:23:28.577Z,19.12
2018-08-23T04:25:59.959Z,19.19
2018-08-23T04:28:31.517Z,19.18
2018-08-23T04:31:03.037Z,19.23
2018-08-23T04:33:32.985Z,19.09
2018-08-23T04:36:04.176Z,19.11
2018-08-23T04:38:36.981Z,19.05
2018-08-23T04:41:11.345Z,19.15
2018-08-23T04:43:43.196Z,19.16
2018-08-23T04:46:18.234Z,19.30
2018-08-23T04:48:48.620Z,19.37
2018-08-23T04:51:20.721Z,19.43
2018-08-23T04:53:52.375Z,19.39
2018-08-23T04:56:23.245Z,19.44
2018-08-23T04:58:54.257Z,19.43
2018-08-23T05:01:24.635Z,19.47
2018-08-23T05:03:56.344Z,19.46
2018-08-23T05:06:27.366Z,19.49
2018-08-23T05:08:58.546Z,19.53
2018-08-23T05:11:28.852Z,19.55
2018-08-23T05:13:59.143Z,19.59
2018-08-23T05:16:30.430Z,19.67
2018-08-23T05:19:00.663Z,19.66
2018-08-23T05:21:32.519Z,19.67
2018-08-23T05:24:07.445Z,19.70
2018-08-23T05:26:37.832Z,19.73
2018-08-23T05:29:11.418Z,19.61
2018-08-23T05:31:42.496Z,19.64
2018-08-23T05:34:13.050Z,19.63
2018-08-23T05:36:44.187Z,19.57
2018-08-23T05:39:15.949Z,19.63
2018-08-23T05:41:48.554Z,19.78
2018-08-23T05:44:21.917Z,19.82
2018-08-23T05:46:56.943Z,19.88
2018-08-23T05:49:27.279Z,19.88
2018-08-23T05:52:01.523Z,19.95
2018-08-23T05:54:33.080Z,20.03
2018-08-23T05:57:04.448Z,20.05
2018-08-23T05:59:35.438Z,20.12
2018-08-23T06:02:11.896Z,20.05
2018-08-23T06:04:44.464Z,20.09
2018-08-23T06:07:15.527Z,20.17
2018-08-23T06:09:46.758Z,20.14
2018-08-23T06:12:18.480Z,19.89
2018-08-23T06:14:50.512Z,20.04
2018-08-23T06:19:49.133Z,20.08
2018-08-23T06:22:24.132Z,19.87
2018-08-23T06:24:54.592Z,19.93
2018-08-23T06:27:25.081Z,19.97
2018-08-23T06:29:56.316Z,20.19
2018-08-23T06:32:30.289Z,20.21
2018-08-23T06:35:05.210Z,20.23
2018-08-23T06:37:38.482Z,20.01
2018-08-23T06:40:10.983Z,20.25
2018-08-23T06:42:52.225Z,20.02
2018-08-23T06:45:24.389Z,20.13
2018-08-23T06:48:00.122Z,20.00
2018-08-23T06:50:31.063Z,20.23
2018-08-23T06:53:03.675Z,20.25
2018-08-23T06:55:38.489Z,20.46
2018-08-23T06:58:11.363Z,20.52
2018-08-23T07:00:41.948Z,20.61
2018-08-23T07:03:12.914Z,20.65
2018-08-23T07:05:45.507Z,20.73
2018-08-23T07:08:16.681Z,20.61
2018-08-23T07:10:49.877Z,20.91
2018-08-23T07:13:22.950Z,21.03
2018-08-23T07:16:00.541Z,21.25
2018-08-23T07:18:35.558Z,21.20
2018-08-23T07:21:07.359Z,21.42
2018-08-23T07:23:40.283Z,21.31
2018-08-23T07:26:12.308Z,21.28
2018-08-23T07:28:43.942Z,21.14
2018-08-23T07:31:43.734Z,21.27
2018-08-23T07:34:16.308Z,21.11
2018-08-23T07:36:48.064Z,21.14
2018-08-23T07:39:18.914Z,21.19
2018-08-23T07:41:49.109Z,20.76
2018-08-23T07:44:19.979Z,20.87
2018-08-23T07:46:51.080Z,21.02
2018-08-23T07:49:22.248Z,21.13
2018-08-23T07:51:53.925Z,21.21
2018-08-23T07:54:30.908Z,21.23
2018-08-23T07:57:01.137Z,21.37
2018-08-23T07:59:31.934Z,21.42
2018-08-23T08:02:03.522Z,21.33
2018-08-23T08:04:34.142Z,21.18
2018-08-23T08:07:04.830Z,21.27
2018-08-23T08:09:36.324Z,21.24
2018-08-23T08:12:07.051Z,21.42
2018-08-23T08:14:39.320Z,21.20
2018-08-23T08:17:18.391Z,21.13
2018-08-23T08:19:59.705Z,20.80
2018-08-23T08:22:30.232Z,21.15
2018-08-23T08:25:32.510Z,21.17
2018-08-23T08:28:02.832Z,21.27
2018-08-23T08:31:01.913Z,21.33
2018-08-23T08:33:39.562Z,21.46
2018-08-23T08:36:09.787Z,21.33
2018-08-23T08:38:40.130Z,21.30
2018-08-23T08:41:10.371Z,21.30
2018-08-23T08:43:44.061Z,21.23
2018-08-23T08:46:14.812Z,21.13
2018-08-23T08:48:45.519Z,21.30
2018-08-23T08:51:28.534Z,21.20
2018-08-23T08:54:01.573Z,21.30
2018-08-23T08:56:37.302Z,21.34
2018-08-23T08:59:08.029Z,21.41
2018-08-23T09:01:44.676Z,21.59
2018-08-23T09:04:21.745Z,21.70
2018-08-23T09:06:56.468Z,21.59
2018-08-23T09:09:40.967Z,21.69
2018-08-23T09:12:14.506Z,21.76
2018-08-23T09:14:46.938Z,21.91
2018-08-23T09:17:51.953Z,21.83
2018-08-23T09:20:23.190Z,22.03
2018-08-23T09:22:56.958Z,21.83
2018-08-23T09:25:33.707Z,21.90
2018-08-23T09:28:04.914Z,22.14
2018-08-23T09:30:38.636Z,22.07
2018-08-23T09:33:16.059Z,22.22
2018-08-23T09:35:49.352Z,21.99
2018-08-23T09:38:23.573Z,22.27
2018-08-23T09:40:57.245Z,22.19
2018-08-23T09:43:34.604Z,22.22
2018-08-23T09:46:09.547Z,22.48
2018-08-23T09:48:43.320Z,22.57
2018-08-23T09:51:22.603Z,22.61
2018-08-23T09:53:54.813Z,22.73
2018-08-23T09:56:31.686Z,22.80
2018-08-23T09:59:08.613Z,22.90
2018-08-23T10:01:47.302Z,22.93
2018-08-23T10:04:29.675Z,23.18
2018-08-23T10:10:16.953Z,23.23
2018-08-23T10:12:58.078Z,23.38
2018-08-23T10:15:34.421Z,23.46
2018-08-23T10:18:15.620Z,23.28
2018-08-23T10:20:52.756Z,23.05
2018-08-23T10:23:25.611Z,22.86
2018-08-23T10:25:58.451Z,22.92
2018-08-23T10:29:00.164Z,23.34
2018-08-23T10:31:30.257Z,23.50
2018-08-23T10:34:00.674Z,23.59
2018-08-23T10:36:31.192Z,23.23
2018-08-23T10:39:02.797Z,23.40
2018-08-23T10:41:33.581Z,23.55
2018-08-23T10:44:04.643Z,23.49
2018-08-23T10:46:41.171Z,23.45
2018-08-23T10:49:11.513Z,23.48
2018-08-23T10:51:42.346Z,23.65
2018-08-23T10:54:12.407Z,24.01
2018-08-23T10:56:42.489Z,23.68
2018-08-23T10:59:13.650Z,23.67
2018-08-23T11:01:44.920Z,23.59
2018-08-23T11:04:16.552Z,23.75
2018-08-23T11:06:51.644Z,23.65
2018-08-23T11:09:27.054Z,23.86
2018-08-23T11:11:57.707Z,23.88
2018-08-23T11:14:32.808Z,23.85
2018-08-23T11:17:08.583Z,23.76
2018-08-23T11:19:43.926Z,23.57
2018-08-23T11:22:14.223Z,23.89
2018-08-23T11:24:47.631Z,23.89
2018-08-23T11:27:17.679Z,23.81
2018-08-23T11:29:48.162Z,23.88
2018-08-23T11:32:19.164Z,23.88
2018-08-23T11:34:49.471Z,24.31
2018-08-23T11:37:20.301Z,24.39
2018-08-23T11:39:51.848Z,24.63
2018-08-23T11:42:22.113Z,24.56
2018-08-23T11:44:52.781Z,24.38
2018-08-23T11:47:22.915Z,24.39
2018-08-23T11:49:53.468Z,24.52
2018-08-23T11:52:23.721Z,24.62
2018-08-23T11:54:53.960Z,24.77
2018-08-23T11:57:24.019Z,24.56
2018-08-23T11:59:54.369Z,24.29
2018-08-23T12:02:24.475Z,24.43
2018-08-23T12:04:54.343Z,24.47
2018-08-23T12:07:24.771Z,24.22
2018-08-23T12:09:55.003Z,24.32
2018-08-23T12:12:25.294Z,24.56
2018-08-23T12:14:55.484Z,24.76
2018-08-23T12:17:25.487Z,24.94
2018-08-23T12:19:55.824Z,25.14
2018-08-23T12:22:33.081Z,25.18
2018-08-23T12:25:10.612Z,25.18
2018-08-23T12:27:43.392Z,25.12
2018-08-23T12:30:15.321Z,24.89
2018-08-23T12:32:47.134Z,24.70
2018-08-23T12:35:17.332Z,25.19
2018-08-23T12:39:00.018Z,24.69
2018-08-23T12:41:36.629Z,25.06
2018-08-23T12:44:09.108Z,25.05
2018-08-23T12:46:43.957Z,25.17
2018-08-23T12:49:15.462Z,25.04
2018-08-23T12:51:47.512Z,24.83
2018-08-23T12:54:21.276Z,25.14
2018-08-23T12:56:53.931Z,24.82
2018-08-23T12:59:24.143Z,24.99
2018-08-23T13:02:06.176Z,25.13
2018-08-23T13:04:40.796Z,25.09
2018-08-23T13:07:11.574Z,24.92
2018-08-23T13:09:42.985Z,25.05
2018-08-23T13:12:13.216Z,25.06
2018-08-23T13:14:43.284Z,24.65
2018-08-23T13:17:14.346Z,24.65
2018-08-23T13:19:44.583Z,24.93
2018-08-23T13:25:12.236Z,25.13
2018-08-23T13:27:42.670Z,25.19
2018-08-23T13:30:12.772Z,25.27
2018-08-23T13:32:43.107Z,25.14
2018-08-23T13:35:13.158Z,25.11
2018-08-23T13:37:43.758Z,24.95
2018-08-23T13:40:18.066Z,24.92
2018-08-23T13:42:49.726Z,25.01
2018-08-23T13:45:19.842Z,25.07
2018-08-23T13:47:52.267Z,25.19
2018-08-23T13:50:22.934Z,24.94
2018-08-23T13:52:53.163Z,24.84
2018-08-23T13:55:24.689Z,24.85
2018-08-23T13:57:54.737Z,25.07
2018-08-23T14:00:29.554Z,24.65
2018-08-23T14:03:00.595Z,24.78
2018-08-23T14:05:31.645Z,24.90
2018-08-23T14:08:02.899Z,24.79
2018-08-23T14:10:33.045Z,24.62
2018-08-23T14:13:03.943Z,24.70
2018-08-23T14:15:39.233Z,24.35
2018-08-23T14:18:09.400Z,24.54
2018-08-23T14:20:40.116Z,24.63
2018-08-23T14:23:10.463Z,24.82
2018-08-23T14:25:40.918Z,25.05
2018-08-23T14:28:11.347Z,25.14
2018-08-23T14:30:41.813Z,24.89
2018-08-23T14:33:12.159Z,24.81
2018-08-23T14:35:42.589Z,24.70
2018-08-23T14:38:12.752Z,24.79
2018-08-23T14:40:43.234Z,24.77
2018-08-23T14:43:13.787Z,24.88
2018-08-23T14:45:44.047Z,24.82
2018-08-23T14:48:16.696Z,24.21
2018-08-23T14:50:50.888Z,24.38
2018-08-23T14:56:22.797Z,24.62
2018-08-23T14:58:52.908Z,24.60
2018-08-23T15:01:23.963Z,24.49
2018-08-23T15:03:54.959Z,24.29
2018-08-23T15:06:24.924Z,24.35
2018-08-23T15:08:54.583Z,24.29
2018-08-23T15:11:24.596Z,24.17
2018-08-23T15:13:56.134Z,24.24
2018-08-23T15:16:25.973Z,24.04
2018-08-23T15:18:55.596Z,24.07
2018-08-23T15:21:25.595Z,24.05
2018-08-23T15:23:59.170Z,24.14
2018-08-23T15:26:29.407Z,24.16
2018-08-23T15:28:58.920Z,24.18
2018-08-23T15:31:28.553Z,24.24
2018-08-23T15:33:58.767Z,24.09
2018-08-23T15:36:29.307Z,24.13
2018-08-23T15:38:58.880Z,23.97
2018-08-23T15:41:29.318Z,24.18
2018-08-23T15:44:02.824Z,24.25
2018-08-23T15:46:38.355Z,24.33
2018-08-23T15:49:10.834Z,24.49
2018-08-23T15:51:41.377Z,24.33
2018-08-23T15:54:12.996Z,24.47
2018-08-23T15:56:43.678Z,24.24
2018-08-23T15:59:15.023Z,24.17
2018-08-23T16:01:44.637Z,24.24
2018-08-23T16:04:15.451Z,24.10
2018-08-23T16:06:45.369Z,24.17
2018-08-23T16:09:17.289Z,23.97
2018-08-23T16:11:47.977Z,23.83
2018-08-23T16:14:18.160Z,23.77
2018-08-23T16:16:54.585Z,23.94
2018-08-23T16:19:30.654Z,24.08
2018-08-23T16:22:02.210Z,24.15
2018-08-23T16:24:32.968Z,24.17
2018-08-23T16:27:05.551Z,24.19
2018-08-23T16:29:35.839Z,24.19
2018-08-23T16:32:10.073Z,23.93
2018-08-23T16:34:41.035Z,24.00
2018-08-23T16:37:12.039Z,23.89
2018-08-23T16:39:43.181Z,23.80
2018-08-23T16:42:16.382Z,23.88
2018-08-23T16:44:47.873Z,23.89
2018-08-23T16:47:19.145Z,23.91
2018-08-23T16:49:50.592Z,23.93
2018-08-23T16:52:20.666Z,23.86
2018-08-23T16:54:51.674Z,23.85
2018-08-23T16:57:23.554Z,23.77
2018-08-23T16:59:53.903Z,23.81
2018-08-23T17:02:24.701Z,23.80
2018-08-23T17:04:55.125Z,23.73
2018-08-23T17:07:25.864Z,23.57
2018-08-23T17:09:56.246Z,23.51
2018-08-23T17:12:26.190Z,23.56
2018-08-23T17:14:58.446Z,23.59
2018-08-23T17:17:32.443Z,23.61
2018-08-23T17:20:02.755Z,23.69
2018-08-23T17:22:32.712Z,23.74
2018-08-23T17:25:02.861Z,23.66
2018-08-23T17:27:33.772Z,23.51
2018-08-23T17:30:04.310Z,23.44
2018-08-23T17:32:34.521Z,23.48
2018-08-23T17:35:04.789Z,23.39
2018-08-23T17:37:35.381Z,23.35
2018-08-23T17:40:07.163Z,23.30
2018-08-23T17:42:43.672Z,23.31
2018-08-23T17:45:15.144Z,23.24
2018-08-23T17:47:45.848Z,23.26
2018-08-23T17:50:15.989Z,23.18
2018-08-23T17:52:47.169Z,23.19
2018-08-23T17:55:19.102Z,23.13
2018-08-23T17:57:49.465Z,23.07
2018-08-23T18:00:19.649Z,23.05
2018-08-23T18:02:50.684Z,23.01
2018-08-23T18:05:21.018Z,22.93
2018-08-23T18:07:51.122Z,22.94
2018-08-23T18:10:21.376Z,22.88
2018-08-23T18:12:51.394Z,22.81
2018-08-23T18:15:21.483Z,22.78
2018-08-23T18:17:51.847Z,22.72
2018-08-23T18:20:21.967Z,22.71
2018-08-23T18:22:52.151Z,22.64
2018-08-23T18:25:22.301Z,22.63
2018-08-23T18:27:53.105Z,22.61
2018-08-23T18:30:23.211Z,22.64
2018-08-23T18:32:53.540Z,22.60
2018-08-23T18:35:26.473Z,22.58
2018-08-23T18:37:56.769Z,22.60
2018-08-23T18:40:26.750Z,22.52
2018-08-23T18:42:57.794Z,22.48
2018-08-23T18:45:28.011Z,22.50
2018-08-23T18:47:58.385Z,22.45
2018-08-23T18:50:29.608Z,22.39
2018-08-23T18:53:00.254Z,22.40
2018-08-23T19:05:07.830Z,22.28
2018-08-23T19:42:23.178Z,21.81
2018-08-23T19:44:57.194Z,21.71
2018-08-23T19:47:32.872Z,21.60
2018-08-23T19:50:10.744Z,21.64
2018-08-23T19:52:43.528Z,21.64
2018-08-23T19:55:15.388Z,21.70
2018-08-23T19:57:48.472Z,21.70
2018-08-23T20:00:20.725Z,21.75
2018-08-23T20:02:53.023Z,21.65
2018-08-23T20:05:26.661Z,21.65
2018-08-23T20:07:57.727Z,21.58
2018-08-23T20:10:29.555Z,21.58
2018-08-23T20:13:00.601Z,21.51
2018-08-23T20:15:39.777Z,21.53
2018-08-23T20:18:13.730Z,21.55
2018-08-23T20:20:47.730Z,21.49
2018-08-23T20:23:21.209Z,21.44
2018-08-23T20:25:51.527Z,21.49
2018-08-23T20:28:22.000Z,21.47
2018-08-23T20:30:52.371Z,21.37
2018-08-23T20:33:22.618Z,21.29
2018-08-23T20:35:52.627Z,21.28
2018-08-23T20:38:22.679Z,21.19
2018-08-23T20:40:52.848Z,21.08
2018-08-23T20:43:23.092Z,21.11
2018-08-23T20:45:53.519Z,21.14
2018-08-23T20:48:25.224Z,21.11
2018-08-23T20:50:55.322Z,21.06
2018-08-23T20:53:25.377Z,21.05
2018-08-23T20:55:55.547Z,20.99
2018-08-23T20:58:25.782Z,21.00
2018-08-23T21:00:57.042Z,20.97
2018-08-23T21:03:28.836Z,20.93
2018-08-23T21:05:59.671Z,20.87
2018-08-23T21:08:35.313Z,20.92
2018-08-23T21:11:07.575Z,20.85
2018-08-23T21:13:38.624Z,20.89
2018-08-23T21:16:09.644Z,20.91
2018-08-23T21:18:40.945Z,20.80
2018-08-23T21:21:17.302Z,20.81
2018-08-23T21:23:48.418Z,20.77
2018-08-23T21:26:20.974Z,20.74
2018-08-23T21:28:51.774Z,20.63
2018-08-23T21:31:23.359Z,20.70
2018-08-23T21:33:54.947Z,20.65
2018-08-23T21:36:27.136Z,20.74
2018-08-23T21:38:57.565Z,20.72
2018-08-23T21:41:29.856Z,20.65
2018-08-23T21:44:00.279Z,20.57
2018-08-23T21:46:30.595Z,20.77
2018-08-23T21:49:00.928Z,20.87
2018-08-23T21:51:31.747Z,20.89
2018-08-23T21:54:04.403Z,20.88
2018-08-23T21:56:35.475Z,20.94
2018-08-23T21:59:06.746Z,20.98
2018-08-23T22:01:36.963Z,20.67
2018-08-23T22:04:07.319Z,20.53
2018-08-23T22:06:38.357Z,20.63
2018-08-23T22:09:10.975Z,20.64
2018-08-23T22:11:41.407Z,20.47
2018-08-23T22:14:11.533Z,20.30
2018-08-23T22:16:41.557Z,20.18
2018-08-23T22:19:11.615Z,20.12
2018-08-23T22:21:41.828Z,20.17
2018-08-23T22:24:11.949Z,20.20
2018-08-23T22:26:42.410Z,20.22
2018-08-23T22:29:13.340Z,20.15
2018-08-23T22:31:43.523Z,20.18
2018-08-23T22:34:14.063Z,20.06
2018-08-23T22:36:47.373Z,20.04
2018-08-23T22:39:17.508Z,20.06
2018-08-23T22:41:47.573Z,20.12
2018-08-23T22:44:17.793Z,20.17
2018-08-23T22:46:48.221Z,20.05
2018-08-23T22:49:48.143Z,19.95
2018-08-23T22:52:18.812Z,19.97
2018-08-23T22:54:49.010Z,19.97
2018-08-23T22:57:20.670Z,20.02
2018-08-23T22:59:51.822Z,20.05
2018-08-23T23:02:28.577Z,20.01
2018-08-23T23:05:00.287Z,19.91
2018-08-23T23:07:30.287Z,19.88
2018-08-23T23:10:00.892Z,19.79
2018-08-23T23:12:33.858Z,19.86
2018-08-23T23:15:07.507Z,19.89
2018-08-23T23:17:37.486Z,19.86
2018-08-23T23:20:07.853Z,19.82
2018-08-23T23:22:38.194Z,19.82
2018-08-23T23:25:08.281Z,19.80
2018-08-23T23:27:38.591Z,19.81
2018-08-23T23:30:10.646Z,19.88
2018-08-23T23:32:40.861Z,19.75
2018-08-23T23:35:10.823Z,19.80
2018-08-23T23:37:40.831Z,19.77
2018-08-23T23:40:10.938Z,19.74
2018-08-23T23:42:40.946Z,19.78
2018-08-23T23:45:12.967Z,19.77
2018-08-23T23:47:43.046Z,19.71
2018-08-23T23:50:13.127Z,19.78
2018-08-23T23:52:43.165Z,19.76
2018-08-23T23:55:13.192Z,19.81
2018-08-23T23:57:43.275Z,19.72
